sensor_id;sensor_type;location;lat;lon;timestamp;P1;durP1;ratioP1;P2;durP2;ratioP2
64903;SDS011;51401;48.882;12.598;2023-09-18T00:00:49;7.07;;;6.15;;
64903;SDS011;51401;48.882;12.598;2023-09-18T00:03:18;7.40;;;6.22;;
64903;SDS011;51401;48.882;12.598;2023-09-18T00:05:48;7.15;;;6.38;;
64903;SDS011;51401;48.882;12.598;2023-09-18T00:08:14;7.07;;;6.38;;
64903;SDS011;51401;48.882;12.598;2023-09-18T00:10:40;7.10;;;6.40;;
64903;SDS011;51401;48.882;12.598;2023-09-18T00:13:06;7.28;;;5.97;;
64903;SDS011;51401;48.882;12.598;2023-09-18T00:15:31;7.00;;;6.15;;
64903;SDS011;51401;48.882;12.598;2023-09-18T00:17:56;7.32;;;6.43;;
64903;SDS011;51401;48.882;12.598;2023-09-18T00:20:22;6.90;;;6.20;;
64903;SDS011;51401;48.882;12.598;2023-09-18T00:22:52;8.00;;;6.25;;
64903;SDS011;51401;48.882;12.598;2023-09-18T00:25:20;6.50;;;5.65;;
64903;SDS011;51401;48.882;12.598;2023-09-18T00:27:46;7.47;;;6.50;;
64903;SDS011;51401;48.882;12.598;2023-09-18T00:30:12;6.85;;;6.13;;
64903;SDS011;51401;48.882;12.598;2023-09-18T00:32:37;6.97;;;5.97;;
64903;SDS011;51401;48.882;12.598;2023-09-18T00:35:02;6.70;;;6.00;;
64903;SDS011;51401;48.882;12.598;2023-09-18T00:37:28;7.00;;;6.03;;
64903;SDS011;51401;48.882;12.598;2023-09-18T00:39:54;7.72;;;6.38;;
64903;SDS011;51401;48.882;12.598;2023-09-18T00:42:19;7.00;;;5.85;;
64903;SDS011;51401;48.882;12.598;2023-09-18T00:44:47;7.32;;;6.32;;
64903;SDS011;51401;48.882;12.598;2023-09-18T00:47:13;7.10;;;6.40;;
64903;SDS011;51401;48.882;12.598;2023-09-18T00:49:40;7.00;;;6.30;;
64903;SDS011;51401;48.882;12.598;2023-09-18T00:52:08;6.65;;;5.95;;
64903;SDS011;51401;48.882;12.598;2023-09-18T00:54:35;6.85;;;5.93;;
64903;SDS011;51401;48.882;12.598;2023-09-18T00:57:02;6.63;;;5.85;;
64903;SDS011;51401;48.882;12.598;2023-09-18T00:59:28;7.53;;;5.82;;
64903;SDS011;51401;48.882;12.598;2023-09-18T01:01:54;7.43;;;6.30;;
64903;SDS011;51401;48.882;12.598;2023-09-18T01:04:20;7.82;;;6.40;;
64903;SDS011;51401;48.882;12.598;2023-09-18T01:06:46;6.47;;;5.68;;
64903;SDS011;51401;48.882;12.598;2023-09-18T01:09:14;6.90;;;6.20;;
64903;SDS011;51401;48.882;12.598;2023-09-18T01:11:54;7.10;;;5.57;;
64903;SDS011;51401;48.882;12.598;2023-09-18T01:14:50;6.80;;;6.10;;
64903;SDS011;51401;48.882;12.598;2023-09-18T01:17:22;8.32;;;5.65;;
64903;SDS011;51401;48.882;12.598;2023-09-18T01:19:48;6.70;;;6.03;;
64903;SDS011;51401;48.882;12.598;2023-09-18T01:22:14;7.00;;;5.78;;
64903;SDS011;51401;48.882;12.598;2023-09-18T01:24:44;6.70;;;5.85;;
64903;SDS011;51401;48.882;12.598;2023-09-18T01:27:12;6.38;;;5.78;;
64903;SDS011;51401;48.882;12.598;2023-09-18T01:29:39;6.40;;;5.57;;
64903;SDS011;51401;48.882;12.598;2023-09-18T01:32:05;6.70;;;5.65;;
64903;SDS011;51401;48.882;12.598;2023-09-18T01:34:32;6.32;;;5.57;;
64903;SDS011;51401;48.882;12.598;2023-09-18T01:39:27;6.65;;;5.70;;
64903;SDS011;51401;48.882;12.598;2023-09-18T01:41:57;6.68;;;5.22;;
64903;SDS011;51401;48.882;12.598;2023-09-18T01:44:30;6.45;;;5.47;;
64903;SDS011;51401;48.882;12.598;2023-09-18T01:46:57;6.82;;;5.60;;
64903;SDS011;51401;48.882;12.598;2023-09-18T01:49:31;6.22;;;5.57;;
64903;SDS011;51401;48.882;12.598;2023-09-18T01:51:59;6.30;;;5.70;;
64903;SDS011;51401;48.882;12.598;2023-09-18T01:54:24;5.88;;;5.28;;
64903;SDS011;51401;48.882;12.598;2023-09-18T01:56:50;5.65;;;5.10;;
64903;SDS011;51401;48.882;12.598;2023-09-18T01:59:17;6.78;;;5.60;;
64903;SDS011;51401;48.882;12.598;2023-09-18T02:01:43;6.72;;;5.30;;
64903;SDS011;51401;48.882;12.598;2023-09-18T02:04:08;5.93;;;5.32;;
64903;SDS011;51401;48.882;12.598;2023-09-18T02:06:34;5.70;;;5.10;;
64903;SDS011;51401;48.882;12.598;2023-09-18T02:09:00;5.88;;;5.10;;
64903;SDS011;51401;48.882;12.598;2023-09-18T02:11:26;6.70;;;5.78;;
64903;SDS011;51401;48.882;12.598;2023-09-18T02:13:52;6.07;;;5.47;;
64903;SDS011;51401;48.882;12.598;2023-09-18T02:16:17;6.22;;;5.63;;
64903;SDS011;51401;48.882;12.598;2023-09-18T02:18:47;6.95;;;6.13;;
64903;SDS011;51401;48.882;12.598;2023-09-18T02:21:18;6.25;;;5.15;;
64903;SDS011;51401;48.882;12.598;2023-09-18T02:23:50;6.40;;;5.80;;
64903;SDS011;51401;48.882;12.598;2023-09-18T02:26:16;6.93;;;5.83;;
64903;SDS011;51401;48.882;12.598;2023-09-18T02:28:42;7.03;;;6.05;;
64903;SDS011;51401;48.882;12.598;2023-09-18T02:31:08;6.38;;;5.78;;
64903;SDS011;51401;48.882;12.598;2023-09-18T02:33:34;7.45;;;5.45;;
64903;SDS011;51401;48.882;12.598;2023-09-18T02:35:59;7.05;;;5.78;;
64903;SDS011;51401;48.882;12.598;2023-09-18T02:38:26;6.93;;;6.00;;
64903;SDS011;51401;48.882;12.598;2023-09-18T02:40:51;6.75;;;5.88;;
64903;SDS011;51401;48.882;12.598;2023-09-18T02:43:18;6.22;;;5.40;;
64903;SDS011;51401;48.882;12.598;2023-09-18T02:45:43;6.43;;;5.65;;
64903;SDS011;51401;48.882;12.598;2023-09-18T02:48:10;6.50;;;5.80;;
64903;SDS011;51401;48.882;12.598;2023-09-18T02:50:36;7.03;;;5.95;;
64903;SDS011;51401;48.882;12.598;2023-09-18T02:53:01;6.13;;;5.53;;
64903;SDS011;51401;48.882;12.598;2023-09-18T02:55:28;5.75;;;5.22;;
64903;SDS011;51401;48.882;12.598;2023-09-18T02:57:53;6.60;;;5.78;;
64903;SDS011;51401;48.882;12.598;2023-09-18T03:00:19;7.70;;;5.38;;
64903;SDS011;51401;48.882;12.598;2023-09-18T03:02:44;6.35;;;5.50;;
64903;SDS011;51401;48.882;12.598;2023-09-18T03:05:09;6.07;;;5.10;;
64903;SDS011;51401;48.882;12.598;2023-09-18T03:07:35;7.80;;;5.55;;
64903;SDS011;51401;48.882;12.598;2023-09-18T03:10:00;6.00;;;5.13;;
64903;SDS011;51401;48.882;12.598;2023-09-18T03:12:26;6.25;;;5.25;;
64903;SDS011;51401;48.882;12.598;2023-09-18T03:14:51;6.47;;;5.35;;
64903;SDS011;51401;48.882;12.598;2023-09-18T03:17:17;5.90;;;5.03;;
64903;SDS011;51401;48.882;12.598;2023-09-18T03:19:42;5.57;;;5.03;;
64903;SDS011;51401;48.882;12.598;2023-09-18T03:22:07;5.80;;;5.20;;
64903;SDS011;51401;48.882;12.598;2023-09-18T03:24:32;6.80;;;5.93;;
64903;SDS011;51401;48.882;12.598;2023-09-18T03:26:59;6.70;;;5.93;;
64903;SDS011;51401;48.882;12.598;2023-09-18T03:29:24;6.07;;;5.47;;
64903;SDS011;51401;48.882;12.598;2023-09-18T03:31:49;7.18;;;5.20;;
64903;SDS011;51401;48.882;12.598;2023-09-18T03:34:15;7.18;;;5.95;;
64903;SDS011;51401;48.882;12.598;2023-09-18T03:36:40;7.32;;;5.57;;
64903;SDS011;51401;48.882;12.598;2023-09-18T03:39:05;6.68;;;4.80;;
64903;SDS011;51401;48.882;12.598;2023-09-18T03:41:31;6.97;;;5.78;;
64903;SDS011;51401;48.882;12.598;2023-09-18T03:43:59;8.38;;;5.75;;
64903;SDS011;51401;48.882;12.598;2023-09-18T03:46:25;7.25;;;6.13;;
64903;SDS011;51401;48.882;12.598;2023-09-18T03:48:50;6.30;;;5.70;;
64903;SDS011;51401;48.882;12.598;2023-09-18T03:51:16;6.88;;;5.97;;
64903;SDS011;51401;48.882;12.598;2023-09-18T03:53:43;7.45;;;5.53;;
64903;SDS011;51401;48.882;12.598;2023-09-18T03:56:09;7.80;;;6.22;;
64903;SDS011;51401;48.882;12.598;2023-09-18T03:58:34;6.43;;;5.25;;
64903;SDS011;51401;48.882;12.598;2023-09-18T04:01:00;6.40;;;5.60;;
64903;SDS011;51401;48.882;12.598;2023-09-18T04:03:25;7.90;;;5.43;;
64903;SDS011;51401;48.882;12.598;2023-09-18T04:05:51;6.07;;;5.45;;
64903;SDS011;51401;48.882;12.598;2023-09-18T04:08:16;6.18;;;5.50;;
64903;SDS011;51401;48.882;12.598;2023-09-18T04:10:41;5.82;;;4.97;;
64903;SDS011;51401;48.882;12.598;2023-09-18T04:13:07;6.38;;;5.65;;
64903;SDS011;51401;48.882;12.598;2023-09-18T04:15:33;7.13;;;5.45;;
64903;SDS011;51401;48.882;12.598;2023-09-18T04:18:02;6.93;;;6.15;;
64903;SDS011;51401;48.882;12.598;2023-09-18T04:20:30;6.78;;;6.03;;
64903;SDS011;51401;48.882;12.598;2023-09-18T04:25:51;7.90;;;6.05;;
64903;SDS011;51401;48.882;12.598;2023-09-18T04:28:17;6.85;;;6.13;;
64903;SDS011;51401;48.882;12.598;2023-09-18T04:30:44;7.20;;;6.28;;
64903;SDS011;51401;48.882;12.598;2023-09-18T04:33:10;7.65;;;5.90;;
64903;SDS011;51401;48.882;12.598;2023-09-18T04:35:37;6.40;;;5.80;;
64903;SDS011;51401;48.882;12.598;2023-09-18T04:38:04;7.65;;;6.05;;
64903;SDS011;51401;48.882;12.598;2023-09-18T04:40:31;7.10;;;6.40;;
64903;SDS011;51401;48.882;12.598;2023-09-18T04:42:57;6.85;;;6.15;;
64903;SDS011;51401;48.882;12.598;2023-09-18T04:45:26;8.23;;;6.07;;
64903;SDS011;51401;48.882;12.598;2023-09-18T04:47:52;7.20;;;5.88;;
64903;SDS011;51401;48.882;12.598;2023-09-18T04:50:19;7.38;;;5.95;;
64903;SDS011;51401;48.882;12.598;2023-09-18T04:52:45;7.95;;;6.13;;
64903;SDS011;51401;48.882;12.598;2023-09-18T04:55:10;8.25;;;5.95;;
64903;SDS011;51401;48.882;12.598;2023-09-18T04:57:36;7.45;;;6.43;;
64903;SDS011;51401;48.882;12.598;2023-09-18T05:00:02;8.25;;;6.47;;
64903;SDS011;51401;48.882;12.598;2023-09-18T05:02:28;7.15;;;5.88;;
64903;SDS011;51401;48.882;12.598;2023-09-18T05:04:55;7.38;;;6.57;;
64903;SDS011;51401;48.882;12.598;2023-09-18T05:07:21;7.80;;;6.53;;
64903;SDS011;51401;48.882;12.598;2023-09-18T05:09:46;7.93;;;6.88;;
64903;SDS011;51401;48.882;12.598;2023-09-18T05:12:12;6.68;;;5.97;;
64903;SDS011;51401;48.882;12.598;2023-09-18T05:14:40;7.50;;;6.22;;
64903;SDS011;51401;48.882;12.598;2023-09-18T05:17:08;9.20;;;6.65;;
64903;SDS011;51401;48.882;12.598;2023-09-18T05:19:35;7.93;;;6.95;;
64903;SDS011;51401;48.882;12.598;2023-09-18T05:22:00;9.47;;;6.60;;
64903;SDS011;51401;48.882;12.598;2023-09-18T05:24:25;9.67;;;7.00;;
64903;SDS011;51401;48.882;12.598;2023-09-18T05:26:52;8.23;;;6.03;;
64903;SDS011;51401;48.882;12.598;2023-09-18T05:29:18;8.00;;;6.57;;
64903;SDS011;51401;48.882;12.598;2023-09-18T05:31:44;7.32;;;5.93;;
64903;SDS011;51401;48.882;12.598;2023-09-18T05:34:10;7.85;;;6.25;;
64903;SDS011;51401;48.882;12.598;2023-09-18T05:36:36;7.93;;;6.90;;
64903;SDS011;51401;48.882;12.598;2023-09-18T05:39:01;8.00;;;6.85;;
64903;SDS011;51401;48.882;12.598;2023-09-18T05:41:26;9.73;;;7.82;;
64903;SDS011;51401;48.882;12.598;2023-09-18T05:43:53;8.23;;;6.40;;
64903;SDS011;51401;48.882;12.598;2023-09-18T05:46:19;8.35;;;6.70;;
64903;SDS011;51401;48.882;12.598;2023-09-18T05:48:44;7.57;;;6.15;;
64903;SDS011;51401;48.882;12.598;2023-09-18T05:51:10;7.43;;;6.43;;
64903;SDS011;51401;48.882;12.598;2023-09-18T05:53:35;12.17;;;7.23;;
64903;SDS011;51401;48.882;12.598;2023-09-18T05:56:02;7.32;;;6.07;;
64903;SDS011;51401;48.882;12.598;2023-09-18T05:58:29;7.60;;;6.25;;
64903;SDS011;51401;48.882;12.598;2023-09-18T06:00:57;8.93;;;6.28;;
64903;SDS011;51401;48.882;12.598;2023-09-18T06:03:25;7.53;;;6.50;;
64903;SDS011;51401;48.882;12.598;2023-09-18T06:05:51;7.38;;;6.35;;
64903;SDS011;51401;48.882;12.598;2023-09-18T06:08:17;6.63;;;5.93;;
64903;SDS011;51401;48.882;12.598;2023-09-18T06:10:43;6.32;;;5.72;;
64903;SDS011;51401;48.882;12.598;2023-09-18T06:13:09;6.88;;;6.13;;
64903;SDS011;51401;48.882;12.598;2023-09-18T06:15:35;7.22;;;5.75;;
64903;SDS011;51401;48.882;12.598;2023-09-18T06:18:00;8.68;;;6.13;;
64903;SDS011;51401;48.882;12.598;2023-09-18T06:20:26;6.75;;;5.97;;
64903;SDS011;51401;48.882;12.598;2023-09-18T06:22:51;5.85;;;5.30;;
64903;SDS011;51401;48.882;12.598;2023-09-18T06:25:17;6.68;;;5.53;;
64903;SDS011;51401;48.882;12.598;2023-09-18T06:27:42;5.82;;;5.20;;
64903;SDS011;51401;48.882;12.598;2023-09-18T06:30:08;6.75;;;5.15;;
64903;SDS011;51401;48.882;12.598;2023-09-18T06:32:34;5.90;;;5.28;;
64903;SDS011;51401;48.882;12.598;2023-09-18T06:35:00;5.32;;;4.85;;
64903;SDS011;51401;48.882;12.598;2023-09-18T06:37:26;5.85;;;5.30;;
64903;SDS011;51401;48.882;12.598;2023-09-18T06:39:51;5.20;;;4.72;;
64903;SDS011;51401;48.882;12.598;2023-09-18T06:42:17;6.38;;;5.70;;
64903;SDS011;51401;48.882;12.598;2023-09-18T06:44:42;6.13;;;5.40;;
64903;SDS011;51401;48.882;12.598;2023-09-18T06:47:07;6.65;;;5.95;;
64903;SDS011;51401;48.882;12.598;2023-09-18T06:49:33;5.65;;;5.13;;
64903;SDS011;51401;48.882;12.598;2023-09-18T06:51:59;6.22;;;5.63;;
64903;SDS011;51401;48.882;12.598;2023-09-18T06:54:24;6.30;;;5.33;;
64903;SDS011;51401;48.882;12.598;2023-09-18T06:56:49;5.97;;;5.43;;
64903;SDS011;51401;48.882;12.598;2023-09-18T06:59:15;5.63;;;5.07;;
64903;SDS011;51401;48.882;12.598;2023-09-18T07:01:41;6.05;;;5.25;;
64903;SDS011;51401;48.882;12.598;2023-09-18T07:04:06;5.90;;;5.40;;
64903;SDS011;51401;48.882;12.598;2023-09-18T07:06:32;6.03;;;4.88;;
64903;SDS011;51401;48.882;12.598;2023-09-18T07:08:57;5.40;;;4.85;;
64903;SDS011;51401;48.882;12.598;2023-09-18T07:11:23;5.73;;;5.23;;
64903;SDS011;51401;48.882;12.598;2023-09-18T07:13:48;6.25;;;5.65;;
64903;SDS011;51401;48.882;12.598;2023-09-18T07:16:13;6.00;;;4.53;;
64903;SDS011;51401;48.882;12.598;2023-09-18T07:18:39;5.90;;;5.20;;
64903;SDS011;51401;48.882;12.598;2023-09-18T07:21:04;5.28;;;4.78;;
64903;SDS011;51401;48.882;12.598;2023-09-18T07:23:30;5.28;;;4.78;;
64903;SDS011;51401;48.882;12.598;2023-09-18T07:25:55;5.28;;;4.78;;
64903;SDS011;51401;48.882;12.598;2023-09-18T07:28:22;5.20;;;4.68;;
64903;SDS011;51401;48.882;12.598;2023-09-18T07:30:49;5.40;;;4.75;;
64903;SDS011;51401;48.882;12.598;2023-09-18T07:33:14;4.82;;;4.32;;
64903;SDS011;51401;48.882;12.598;2023-09-18T07:35:51;5.88;;;4.93;;
64903;SDS011;51401;48.882;12.598;2023-09-18T07:38:19;5.68;;;4.85;;
64903;SDS011;51401;48.882;12.598;2023-09-18T07:40:45;6.33;;;4.50;;
64903;SDS011;51401;48.882;12.598;2023-09-18T07:43:11;5.25;;;4.75;;
64903;SDS011;51401;48.882;12.598;2023-09-18T07:45:38;5.45;;;4.82;;
64903;SDS011;51401;48.882;12.598;2023-09-18T07:48:04;11.60;;;7.25;;
64903;SDS011;51401;48.882;12.598;2023-09-18T07:50:31;4.93;;;4.53;;
64903;SDS011;51401;48.882;12.598;2023-09-18T07:52:58;5.20;;;4.35;;
64903;SDS011;51401;48.882;12.598;2023-09-18T07:55:26;5.35;;;4.63;;
64903;SDS011;51401;48.882;12.598;2023-09-18T07:57:51;8.15;;;5.47;;
64903;SDS011;51401;48.882;12.598;2023-09-18T08:00:17;4.75;;;4.35;;
64903;SDS011;51401;48.882;12.598;2023-09-18T08:02:43;4.53;;;4.13;;
64903;SDS011;51401;48.882;12.598;2023-09-18T08:05:08;5.85;;;4.20;;
64903;SDS011;51401;48.882;12.598;2023-09-18T08:07:34;5.53;;;5.03;;
64903;SDS011;51401;48.882;12.598;2023-09-18T08:10:04;5.10;;;4.70;;
64903;SDS011;51401;48.882;12.598;2023-09-18T08:12:31;6.32;;;5.20;;
64903;SDS011;51401;48.882;12.598;2023-09-18T08:14:57;4.95;;;4.47;;
64903;SDS011;51401;48.882;12.598;2023-09-18T08:17:24;5.43;;;4.60;;
64903;SDS011;51401;48.882;12.598;2023-09-18T08:19:50;4.75;;;4.18;;
64903;SDS011;51401;48.882;12.598;2023-09-18T08:22:17;5.75;;;4.78;;
64903;SDS011;51401;48.882;12.598;2023-09-18T08:24:44;4.72;;;4.22;;
64903;SDS011;51401;48.882;12.598;2023-09-18T08:27:10;6.22;;;4.07;;
64903;SDS011;51401;48.882;12.598;2023-09-18T08:29:37;5.13;;;4.32;;
64903;SDS011;51401;48.882;12.598;2023-09-18T08:32:02;4.93;;;4.47;;
64903;SDS011;51401;48.882;12.598;2023-09-18T08:34:27;5.53;;;4.60;;
64903;SDS011;51401;48.882;12.598;2023-09-18T08:36:54;5.47;;;4.90;;
64903;SDS011;51401;48.882;12.598;2023-09-18T08:39:19;6.07;;;4.60;;
64903;SDS011;51401;48.882;12.598;2023-09-18T08:41:45;5.78;;;4.65;;
64903;SDS011;51401;48.882;12.598;2023-09-18T08:44:15;4.70;;;4.30;;
64903;SDS011;51401;48.882;12.598;2023-09-18T08:46:42;13.25;;;6.38;;
64903;SDS011;51401;48.882;12.598;2023-09-18T08:49:08;6.93;;;4.93;;
64903;SDS011;51401;48.882;12.598;2023-09-18T08:51:35;9.00;;;5.72;;
64903;SDS011;51401;48.882;12.598;2023-09-18T08:54:01;4.82;;;4.38;;
64903;SDS011;51401;48.882;12.598;2023-09-18T08:56:28;4.75;;;4.35;;
64903;SDS011;51401;48.882;12.598;2023-09-18T08:58:54;4.53;;;4.13;;
64903;SDS011;51401;48.882;12.598;2023-09-18T09:01:19;5.05;;;4.47;;
64903;SDS011;51401;48.882;12.598;2023-09-18T09:03:44;7.87;;;4.80;;
64903;SDS011;51401;48.882;12.598;2023-09-18T09:06:10;4.82;;;4.30;;
64903;SDS011;51401;48.882;12.598;2023-09-18T09:08:36;6.32;;;4.78;;
64903;SDS011;51401;48.882;12.598;2023-09-18T09:11:02;4.90;;;4.20;;
64903;SDS011;51401;48.882;12.598;2023-09-18T09:13:28;4.95;;;4.45;;
64903;SDS011;51401;48.882;12.598;2023-09-18T09:15:55;5.50;;;5.00;;
64903;SDS011;51401;48.882;12.598;2023-09-18T09:18:26;4.63;;;4.22;;
64903;SDS011;51401;48.882;12.598;2023-09-18T09:20:59;4.82;;;4.43;;
64903;SDS011;51401;48.882;12.598;2023-09-18T09:23:29;5.05;;;4.63;;
64903;SDS011;51401;48.882;12.598;2023-09-18T09:26:13;5.32;;;4.88;;
64903;SDS011;51401;48.882;12.598;2023-09-18T09:28:39;4.82;;;4.38;;
64903;SDS011;51401;48.882;12.598;2023-09-18T09:31:08;4.70;;;4.30;;
64903;SDS011;51401;48.882;12.598;2023-09-18T09:33:35;6.00;;;4.18;;
64903;SDS011;51401;48.882;12.598;2023-09-18T09:36:04;5.45;;;4.95;;
64903;SDS011;51401;48.882;12.598;2023-09-18T09:38:30;6.00;;;4.90;;
64903;SDS011;51401;48.882;12.598;2023-09-18T09:40:57;5.40;;;4.90;;
64903;SDS011;51401;48.882;12.598;2023-09-18T09:43:24;5.20;;;4.55;;
64903;SDS011;51401;48.882;12.598;2023-09-18T09:45:56;4.82;;;4.43;;
64903;SDS011;51401;48.882;12.598;2023-09-18T09:48:30;5.18;;;4.50;;
64903;SDS011;51401;48.882;12.598;2023-09-18T09:50:57;4.45;;;4.05;;
64903;SDS011;51401;48.882;12.598;2023-09-18T09:53:43;4.78;;;4.25;;
64903;SDS011;51401;48.882;12.598;2023-09-18T09:56:13;6.07;;;4.63;;
64903;SDS011;51401;48.882;12.598;2023-09-18T09:58:39;5.30;;;4.80;;
64903;SDS011;51401;48.882;12.598;2023-09-18T10:01:09;4.43;;;4.03;;
64903;SDS011;51401;48.882;12.598;2023-09-18T10:03:42;6.22;;;4.47;;
64903;SDS011;51401;48.882;12.598;2023-09-18T10:06:08;5.05;;;4.60;;
64903;SDS011;51401;48.882;12.598;2023-09-18T10:08:35;5.60;;;4.50;;
64903;SDS011;51401;48.882;12.598;2023-09-18T10:11:07;6.03;;;4.10;;
64903;SDS011;51401;48.882;12.598;2023-09-18T10:13:46;4.45;;;4.00;;
64903;SDS011;51401;48.882;12.598;2023-09-18T10:16:20;4.55;;;3.80;;
64903;SDS011;51401;48.882;12.598;2023-09-18T10:26:22;5.30;;;3.97;;
64903;SDS011;51401;48.882;12.598;2023-09-18T10:28:51;4.57;;;4.05;;
64903;SDS011;51401;48.882;12.598;2023-09-18T10:31:21;4.55;;;4.15;;
64903;SDS011;51401;48.882;12.598;2023-09-18T10:33:47;5.07;;;4.25;;
64903;SDS011;51401;48.882;12.598;2023-09-18T10:36:15;5.28;;;4.40;;
64903;SDS011;51401;48.882;12.598;2023-09-18T10:38:43;4.50;;;4.10;;
64903;SDS011;51401;48.882;12.598;2023-09-18T10:41:14;5.13;;;4.13;;
64903;SDS011;51401;48.882;12.598;2023-09-18T10:43:43;5.18;;;4.07;;
64903;SDS011;51401;48.882;12.598;2023-09-18T10:46:10;4.68;;;4.28;;
64903;SDS011;51401;48.882;12.598;2023-09-18T10:48:38;6.57;;;4.53;;
64903;SDS011;51401;48.882;12.598;2023-09-18T10:51:06;4.60;;;4.20;;
64903;SDS011;51401;48.882;12.598;2023-09-18T10:53:31;5.35;;;4.03;;
64903;SDS011;51401;48.882;12.598;2023-09-18T10:55:57;5.63;;;4.30;;
64903;SDS011;51401;48.882;12.598;2023-09-18T10:58:24;4.88;;;4.38;;
64903;SDS011;51401;48.882;12.598;2023-09-18T11:00:53;5.95;;;4.00;;
64903;SDS011;51401;48.882;12.598;2023-09-18T11:03:21;4.82;;;4.43;;
64903;SDS011;51401;48.882;12.598;2023-09-18T11:06:02;4.68;;;3.97;;
64903;SDS011;51401;48.882;12.598;2023-09-18T11:08:31;5.22;;;4.30;;
64903;SDS011;51401;48.882;12.598;2023-09-18T11:13:51;4.78;;;4.28;;
64903;SDS011;51401;48.882;12.598;2023-09-18T11:21:26;10.00;;;4.38;;
64903;SDS011;51401;48.882;12.598;2023-09-18T11:24:08;4.97;;;4.53;;
64903;SDS011;51401;48.882;12.598;2023-09-18T11:26:42;4.80;;;4.40;;
64903;SDS011;51401;48.882;12.598;2023-09-18T11:29:08;9.93;;;4.60;;
64903;SDS011;51401;48.882;12.598;2023-09-18T11:34:19;4.40;;;4.00;;
64903;SDS011;51401;48.882;12.598;2023-09-18T11:36:46;4.93;;;4.43;;
64903;SDS011;51401;48.882;12.598;2023-09-18T11:39:12;5.80;;;4.30;;
64903;SDS011;51401;48.882;12.598;2023-09-18T11:41:38;6.10;;;4.25;;
64903;SDS011;51401;48.882;12.598;2023-09-18T11:46:35;7.68;;;4.00;;
64903;SDS011;51401;48.882;12.598;2023-09-18T11:49:04;5.57;;;4.13;;
64903;SDS011;51401;48.882;12.598;2023-09-18T11:51:32;4.47;;;4.07;;
64903;SDS011;51401;48.882;12.598;2023-09-18T11:53:57;5.32;;;3.85;;
64903;SDS011;51401;48.882;12.598;2023-09-18T11:56:25;5.95;;;4.20;;
64903;SDS011;51401;48.882;12.598;2023-09-18T11:58:50;5.70;;;4.20;;
64903;SDS011;51401;48.882;12.598;2023-09-18T12:01:17;7.10;;;4.10;;
64903;SDS011;51401;48.882;12.598;2023-09-18T12:03:43;4.78;;;4.28;;
64903;SDS011;51401;48.882;12.598;2023-09-18T12:06:09;6.25;;;4.22;;
64903;SDS011;51401;48.882;12.598;2023-09-18T12:08:38;6.97;;;4.20;;
64903;SDS011;51401;48.882;12.598;2023-09-18T12:11:05;7.30;;;4.35;;
64903;SDS011;51401;48.882;12.598;2023-09-18T12:13:31;7.80;;;4.53;;
64903;SDS011;51401;48.882;12.598;2023-09-18T12:16:03;8.30;;;4.65;;
64903;SDS011;51401;48.882;12.598;2023-09-18T12:18:33;7.55;;;4.13;;
64903;SDS011;51401;48.882;12.598;2023-09-18T12:21:04;6.20;;;4.38;;
64903;SDS011;51401;48.882;12.598;2023-09-18T12:23:38;5.07;;;4.22;;
64903;SDS011;51401;48.882;12.598;2023-09-18T12:26:04;5.72;;;4.22;;
64903;SDS011;51401;48.882;12.598;2023-09-18T12:28:32;9.90;;;4.60;;
64903;SDS011;51401;48.882;12.598;2023-09-18T12:31:00;8.85;;;4.30;;
64903;SDS011;51401;48.882;12.598;2023-09-18T12:33:29;4.20;;;3.75;;
64903;SDS011;51401;48.882;12.598;2023-09-18T12:35:58;8.43;;;4.88;;
64903;SDS011;51401;48.882;12.598;2023-09-18T12:38:23;6.35;;;4.55;;
64903;SDS011;51401;48.882;12.598;2023-09-18T12:40:52;8.13;;;4.50;;
64903;SDS011;51401;48.882;12.598;2023-09-18T12:43:18;7.93;;;4.30;;
64903;SDS011;51401;48.882;12.598;2023-09-18T12:45:45;5.70;;;4.60;;
64903;SDS011;51401;48.882;12.598;2023-09-18T12:48:12;10.90;;;4.75;;
64903;SDS011;51401;48.882;12.598;2023-09-18T12:50:37;7.30;;;4.35;;
64903;SDS011;51401;48.882;12.598;2023-09-18T12:53:12;9.52;;;4.93;;
64903;SDS011;51401;48.882;12.598;2023-09-18T12:55:46;5.25;;;4.75;;
64903;SDS011;51401;48.882;12.598;2023-09-18T12:58:18;8.18;;;4.60;;
64903;SDS011;51401;48.882;12.598;2023-09-18T13:03:15;8.27;;;4.90;;
64903;SDS011;51401;48.882;12.598;2023-09-18T13:05:41;6.80;;;4.22;;
64903;SDS011;51401;48.882;12.598;2023-09-18T13:08:06;4.57;;;3.75;;
64903;SDS011;51401;48.882;12.598;2023-09-18T13:10:44;5.63;;;4.05;;
64903;SDS011;51401;48.882;12.598;2023-09-18T13:13:17;5.03;;;3.30;;
64903;SDS011;51401;48.882;12.598;2023-09-18T13:15:46;10.65;;;4.13;;
64903;SDS011;51401;48.882;12.598;2023-09-18T13:18:13;11.88;;;3.90;;
64903;SDS011;51401;48.882;12.598;2023-09-18T13:20:39;6.00;;;3.25;;
64903;SDS011;51401;48.882;12.598;2023-09-18T13:23:05;8.82;;;3.72;;
64903;SDS011;51401;48.882;12.598;2023-09-18T13:25:38;32.30;;;5.80;;
64903;SDS011;51401;48.882;12.598;2023-09-18T13:28:06;6.28;;;3.00;;
64903;SDS011;51401;48.882;12.598;2023-09-18T13:30:32;7.95;;;3.45;;
64903;SDS011;51401;48.882;12.598;2023-09-18T13:33:05;9.65;;;3.47;;
64903;SDS011;51401;48.882;12.598;2023-09-18T13:35:32;10.60;;;3.05;;
64903;SDS011;51401;48.882;12.598;2023-09-18T13:37:58;8.82;;;3.40;;
64903;SDS011;51401;48.882;12.598;2023-09-18T13:40:24;6.65;;;3.08;;
64903;SDS011;51401;48.882;12.598;2023-09-18T13:42:50;7.45;;;3.08;;
64903;SDS011;51401;48.882;12.598;2023-09-18T13:45:15;8.77;;;2.88;;
64903;SDS011;51401;48.882;12.598;2023-09-18T13:47:43;4.80;;;2.17;;
64903;SDS011;51401;48.882;12.598;2023-09-18T13:50:09;8.98;;;2.25;;
64903;SDS011;51401;48.882;12.598;2023-09-18T13:52:35;5.95;;;2.33;;
64903;SDS011;51401;48.882;12.598;2023-09-18T13:55:04;8.85;;;2.50;;
64903;SDS011;51401;48.882;12.598;2023-09-18T13:57:30;6.70;;;1.98;;
64903;SDS011;51401;48.882;12.598;2023-09-18T13:59:57;3.72;;;1.60;;
64903;SDS011;51401;48.882;12.598;2023-09-18T14:02:22;9.98;;;2.00;;
64903;SDS011;51401;48.882;12.598;2023-09-18T14:04:52;3.83;;;1.00;;
64903;SDS011;51401;48.882;12.598;2023-09-18T14:07:17;5.30;;;1.25;;
64903;SDS011;51401;48.882;12.598;2023-09-18T14:09:42;3.15;;;0.77;;
64903;SDS011;51401;48.882;12.598;2023-09-18T14:12:08;4.00;;;0.77;;
64903;SDS011;51401;48.882;12.598;2023-09-18T14:14:33;4.90;;;0.80;;
64903;SDS011;51401;48.882;12.598;2023-09-18T14:17:00;4.80;;;0.95;;
64903;SDS011;51401;48.882;12.598;2023-09-18T14:19:26;4.82;;;1.02;;
64903;SDS011;51401;48.882;12.598;2023-09-18T14:21:51;7.75;;;1.10;;
64903;SDS011;51401;48.882;12.598;2023-09-18T14:24:17;5.77;;;0.60;;
64903;SDS011;51401;48.882;12.598;2023-09-18T14:26:46;3.85;;;1.15;;
64903;SDS011;51401;48.882;12.598;2023-09-18T14:29:12;4.35;;;1.13;;
64903;SDS011;51401;48.882;12.598;2023-09-18T14:31:38;3.33;;;0.90;;
64903;SDS011;51401;48.882;12.598;2023-09-18T14:34:04;3.15;;;0.90;;
64903;SDS011;51401;48.882;12.598;2023-09-18T14:36:31;8.13;;;1.30;;
64903;SDS011;51401;48.882;12.598;2023-09-18T14:39:02;4.15;;;1.58;;
64903;SDS011;51401;48.882;12.598;2023-09-18T14:41:28;7.50;;;1.25;;
64903;SDS011;51401;48.882;12.598;2023-09-18T14:43:54;3.30;;;1.23;;
64903;SDS011;51401;48.882;12.598;2023-09-18T14:46:20;3.65;;;1.30;;
64903;SDS011;51401;48.882;12.598;2023-09-18T14:48:46;2.22;;;1.05;;
64903;SDS011;51401;48.882;12.598;2023-09-18T14:51:11;3.80;;;1.38;;
64903;SDS011;51401;48.882;12.598;2023-09-18T14:53:36;2.22;;;1.30;;
64903;SDS011;51401;48.882;12.598;2023-09-18T14:56:02;3.17;;;1.20;;
64903;SDS011;51401;48.882;12.598;2023-09-18T14:58:29;2.42;;;1.17;;
64903;SDS011;51401;48.882;12.598;2023-09-18T15:00:54;2.95;;;1.10;;